Time;durP1;ratioP1;P1;durP2;ratioP2;P2;SDS_P1;SDS_P2;PMS_P1;PMS_P2;Temp;Humidity;BMP_temperature;BMP_pressure;BME280_temperature;BME280_humidity;BME280_pressure;Samples;Min_cycle;Max_cycle;Signal;HPM_P1;HPM_P2
2023/10/05 00:01:46;;;;;;;1.52;0.30;;;;;;;16.92;69.94;101503.88;5065895;28;20081;-69
2023/10/05 00:04:15;;;;;;;0.57;0.17;;;;;;;17.05;69.59;101503.41;5063774;28;20062;-69
2023/10/05 00:06:42;;;;;;;1.55;0.30;;;;;;;17.01;70.31;101498.63;5060943;28;20031;-70
2023/10/05 00:09:12;;;;;;;1.98;0.20;;;;;;;16.82;70.98;101497.09;5065213;28;20028;-69
2023/10/05 00:11:37;;;;;;;1.05;0.22;;;;;;;16.63;72.03;101492.06;5061402;28;20036;-69
2023/10/05 00:14:07;;;;;;;1.25;0.30;;;;;;;16.70;70.75;101488.66;5064461;28;20036;-69
2023/10/05 00:16:38;;;;;;;1.20;0.20;;;;;;;16.71;71.82;101485.06;5059659;28;20036;-69
2023/10/05 00:19:12;;;;;;;1.50;0.20;;;;;;;16.57;72.30;101483.00;5062478;28;20040;-69
2023/10/05 00:21:51;;;;;;;0.55;0.20;;;;;;;16.36;73.19;101483.41;5056938;28;20028;-69
2023/10/05 00:24:19;;;;;;;1.63;0.30;;;;;;;16.20;73.95;101491.22;5060854;28;20063;-69
2023/10/05 00:26:46;;;;;;;1.23;0.20;;;;;;;16.07;74.48;101493.47;5063961;28;20029;-69
2023/10/05 00:31:52;;;;;;;0.50;0.15;;;;;;;15.82;75.27;101498.56;5062685;28;20029;-69
2023/10/05 00:36:49;;;;;;;1.40;0.20;;;;;;;15.75;75.71;101504.56;5063915;28;20028;-69
2023/10/05 00:39:19;;;;;;;2.00;0.20;;;;;;;15.70;75.98;101514.72;5064264;28;20456;-69
2023/10/05 00:41:45;;;;;;;2.25;0.40;;;;;;;15.64;76.51;101510.06;5061815;28;20711;-69
2023/10/05 00:44:12;;;;;;;2.38;0.25;;;;;;;15.57;76.49;101508.06;5060697;28;20033;-69
2023/10/05 00:46:39;;;;;;;0.88;0.20;;;;;;;15.49;76.05;101507.97;5059953;28;20326;-69
2023/10/05 00:49:17;;;;;;;1.23;0.15;;;;;;;16.02;72.43;101499.19;5062885;28;20033;-69
2023/10/05 00:52:00;;;;;;;0.43;0.20;;;;;;;16.18;72.37;101498.44;5068170;28;20077;-69
2023/10/05 00:54:29;;;;;;;0.57;0.20;;;;;;;16.02;73.22;101507.06;5069470;28;20035;-69
2023/10/05 00:56:55;;;;;;;0.55;0.20;;;;;;;15.85;74.58;101500.03;5064688;28;20047;-69
2023/10/05 00:59:21;;;;;;;1.55;0.30;;;;;;;15.75;74.55;101494.06;5068745;28;20032;-70
2023/10/05 01:07:26;;;;;;;1.05;0.30;;;;;;;16.11;72.86;101492.97;5067479;28;20045;-70
2023/10/05 01:10:21;;;;;;;0.55;0.10;;;;;;;16.38;69.95;101488.53;5067049;28;20036;-70
2023/10/05 01:12:48;;;;;;;0.73;0.20;;;;;;;16.87;67.68;101485.09;5065994;28;20081;-70
2023/10/05 01:15:19;;;;;;;2.47;0.30;;;;;;;17.23;65.76;101484.84;5067243;28;20060;-69
2023/10/05 01:17:47;;;;;;;1.42;0.15;;;;;;;17.39;65.29;101484.03;5063886;28;20028;-69
2023/10/05 01:22:45;;;;;;;1.05;0.20;;;;;;;17.51;64.68;101472.97;5063829;28;20044;-69
2023/10/05 01:25:13;;;;;;;1.20;0.30;;;;;;;17.31;66.64;101478.75;5064671;28;20033;-70
2023/10/05 01:27:40;;;;;;;0.95;0.20;;;;;;;16.96;68.22;101471.97;5080716;28;20050;-70
2023/10/05 01:30:13;;;;;;;1.33;0.20;;;;;;;16.73;69.59;101469.94;5066200;28;20028;-70
2023/10/05 01:32:42;;;;;;;0.80;0.20;;;;;;;16.50;70.99;101460.97;5065883;28;21189;-70
2023/10/05 01:35:09;;;;;;;1.70;0.20;;;;;;;16.27;72.22;101461.50;5066080;28;20052;-70
2023/10/05 01:37:36;;;;;;;0.80;0.10;;;;;;;16.07;73.03;101461.91;5063686;28;20082;-69
2023/10/05 01:40:11;;;;;;;0.68;0.20;;;;;;;15.88;73.80;101460.31;5066730;28;20056;-70
2023/10/05 01:42:41;;;;;;;0.85;0.20;;;;;;;15.66;74.20;101451.13;5065334;28;20111;-70
2023/10/05 01:45:07;;;;;;;1.05;0.20;;;;;;;15.60;75.01;101446.50;5062262;28;20365;-69
2023/10/05 01:47:33;;;;;;;0.68;0.20;;;;;;;15.48;76.06;101443.28;5071847;28;20519;-69
2023/10/05 01:49:58;;;;;;;1.30;0.28;;;;;;;15.39;76.41;101443.38;5068861;28;20107;-69
2023/10/05 01:52:24;;;;;;;0.93;0.20;;;;;;;15.31;76.80;101445.91;5062720;28;20035;-69
2023/10/05 01:54:52;;;;;;;0.93;0.30;;;;;;;15.21;76.81;101435.50;5069564;28;20020;-69
2023/10/05 01:57:17;;;;;;;1.42;0.25;;;;;;;15.13;77.18;101435.41;5064893;28;20452;-69
2023/10/05 01:59:43;;;;;;;1.08;0.10;;;;;;;15.07;77.75;101438.66;5069458;28;20052;-69
2023/10/05 02:02:15;;;;;;;0.82;0.10;;;;;;;14.93;77.46;101432.97;5081859;28;20369;-69
2023/10/05 02:04:43;;;;;;;1.23;0.28;;;;;;;14.90;77.77;101430.63;5069880;28;20044;-70
2023/10/05 02:07:14;;;;;;;0.43;0.20;;;;;;;15.19;75.65;101427.75;5067421;28;20086;-69
2023/10/05 02:09:40;;;;;;;0.73;0.20;;;;;;;15.18;76.59;101438.41;5072152;28;20041;-70
2023/10/05 02:12:07;;;;;;;1.20;0.20;;;;;;;15.01;76.73;101432.22;5069869;28;20462;-69
2023/10/05 02:14:41;;;;;;;1.00;0.20;;;;;;;14.92;77.76;101433.94;5070285;28;20095;-69
2023/10/05 02:17:09;;;;;;;1.43;0.20;;;;;;;14.88;78.04;101439.63;5066604;28;20078;-69
2023/10/05 02:19:38;;;;;;;2.95;0.38;;;;;;;14.79;78.49;101433.47;5069457;28;20068;-70
2023/10/05 02:22:10;;;;;;;1.13;0.20;;;;;;;14.74;79.37;101435.72;5070598;28;20289;-69
2023/10/05 02:24:36;;;;;;;1.05;0.38;;;;;;;15.13;75.79;101438.88;5069991;28;20358;-69
2023/10/05 02:29:29;;;;;;;1.00;0.20;;;;;;;14.88;77.64;101445.69;5069269;28;20087;-69
2023/10/05 02:34:44;;;;;;;0.77;0.10;;;;;;;14.65;79.17;101448.91;5071431;28;20032;-69
2023/10/05 02:37:19;;;;;;;2.85;0.30;;;;;;;14.59;78.86;101445.06;5072178;28;20032;-69
2023/10/05 02:39:45;;;;;;;1.02;0.20;;;;;;;14.57;79.07;101439.16;5068562;28;20115;-69
2023/10/05 02:42:15;;;;;;;1.95;0.30;;;;;;;14.55;79.10;101438.47;5070465;28;20107;-69
2023/10/05 02:44:44;;;;;;;1.02;0.28;;;;;;;14.52;78.81;101429.09;5068182;28;20131;-69
2023/10/05 02:47:10;;;;;;;0.52;0.20;;;;;;;14.51;78.45;101430.06;5071243;28;20043;-69
2023/10/05 02:49:43;;;;;;;1.10;0.25;;;;;;;14.48;79.38;101432.16;5069525;28;20028;-69
2023/10/05 02:52:13;;;;;;;0.70;0.30;;;;;;;14.36;79.21;101421.00;5069587;28;20028;-69
2023/10/05 02:54:40;;;;;;;3.80;0.20;;;;;;;14.35;78.14;101426.38;5068972;28;20082;-69
2023/10/05 02:57:14;;;;;;;2.22;0.20;;;;;;;14.40;78.53;101419.75;5069082;28;20041;-69
2023/10/05 02:59:40;;;;;;;1.20;0.20;;;;;;;14.38;78.99;101415.59;5066574;28;20044;-69
2023/10/05 03:02:11;;;;;;;1.00;0.20;;;;;;;14.34;79.70;101419.50;5066799;28;20028;-69
2023/10/05 03:04:49;;;;;;;0.28;0.10;;;;;;;14.35;79.26;101415.91;5064271;28;20028;-69
2023/10/05 03:07:16;;;;;;;0.63;0.20;;;;;;;14.51;78.31;101410.88;5069135;28;20135;-69
2023/10/05 03:09:43;;;;;;;0.70;0.20;;;;;;;14.74;77.34;101422.59;5067764;28;20131;-69
2023/10/05 03:12:12;;;;;;;1.33;0.40;;;;;;;15.23;74.03;101418.63;5067150;28;20040;-69
2023/10/05 03:14:44;;;;;;;1.05;0.30;;;;;;;15.20;74.90;101433.84;5067853;28;20031;-69
2023/10/05 03:17:13;;;;;;;0.60;0.17;;;;;;;14.96;76.41;101423.13;5069437;28;20033;-69
2023/10/05 03:19:39;;;;;;;0.93;0.20;;;;;;;14.76;77.89;101422.44;5068422;28;20975;-69
2023/10/05 03:22:07;;;;;;;0.50;0.20;;;;;;;14.62;78.77;101422.97;5065032;28;20032;-69
2023/10/05 03:24:36;;;;;;;1.13;0.20;;;;;;;14.48;79.19;101429.53;5065628;28;20048;-69
2023/10/05 03:27:07;;;;;;;0.50;0.10;;;;;;;14.41;79.98;101426.66;5068523;28;20037;-69
2023/10/05 03:29:35;;;;;;;1.08;0.20;;;;;;;14.35;79.97;101429.00;5067282;28;20430;-69
2023/10/05 03:32:13;;;;;;;3.60;0.30;;;;;;;14.27;80.15;101430.56;5070320;28;20020;-69
2023/10/05 03:34:46;;;;;;;1.52;0.20;;;;;;;14.20;80.59;101434.72;5065449;28;21962;-69
2023/10/05 03:37:15;;;;;;;0.80;0.20;;;;;;;14.14;80.84;101429.25;5070973;28;20020;-69
2023/10/05 03:42:21;;;;;;;1.30;0.30;;;;;;;14.01;81.68;101424.34;5068662;28;20048;-69
2023/10/05 03:44:59;;;;;;;0.95;0.20;;;;;;;13.95;81.95;101430.16;5065755;28;20036;-69
2023/10/05 03:47:25;;;;;;;1.33;0.20;;;;;;;13.92;82.42;101431.25;5069311;28;20039;-69
2023/10/05 03:49:56;;;;;;;1.63;0.10;;;;;;;13.86;82.62;101429.19;5070631;28;20058;-69
2023/10/05 03:52:22;;;;;;;2.10;0.20;;;;;;;13.81;82.49;101433.22;5067818;28;20030;-69
2023/10/05 03:54:47;;;;;;;1.17;0.22;;;;;;;13.71;83.07;101435.03;5069050;28;20072;-69
2023/10/05 03:57:13;;;;;;;0.90;0.20;;;;;;;13.74;82.48;101437.34;5066487;28;20647;-69
2023/10/05 03:59:39;;;;;;;1.73;0.30;;;;;;;13.74;82.82;101453.06;5068890;28;20036;-69
2023/10/05 04:02:09;;;;;;;0.93;0.20;;;;;;;13.73;83.28;101454.03;5067853;28;20433;-69
2023/10/05 04:04:36;;;;;;;1.08;0.20;;;;;;;13.69;83.46;101448.28;5063331;28;20045;-69
2023/10/05 04:07:03;;;;;;;4.13;0.40;;;;;;;13.67;83.42;101441.53;5069564;28;20032;-69
2023/10/05 04:09:29;;;;;;;1.52;0.40;;;;;;;13.67;83.23;101442.38;5061396;28;20040;-69
2023/10/05 04:11:57;;;;;;;2.65;0.30;;;;;;;14.26;79.25;101441.19;5063411;28;20028;-69
2023/10/05 04:14:26;;;;;;;1.38;0.20;;;;;;;14.48;77.85;101429.53;5068810;28;20143;-69
2023/10/05 04:16:53;;;;;;;2.67;0.20;;;;;;;14.49;78.30;101429.38;5065192;28;20089;-69
2023/10/05 04:19:19;;;;;;;1.50;0.30;;;;;;;14.56;75.73;101425.22;5066377;28;20055;-69
2023/10/05 04:21:45;;;;;;;0.93;0.20;;;;;;;15.05;73.99;101424.88;5059717;28;20032;-69
2023/10/05 04:24:14;;;;;;;1.33;0.30;;;;;;;15.03;75.33;101425.03;5061726;28;20038;-69
2023/10/05 04:26:45;;;;;;;1.80;0.30;;;;;;;14.68;77.32;101430.22;5062938;28;20033;-69
2023/10/05 04:29:14;;;;;;;2.20;0.30;;;;;;;14.38;78.89;101420.84;5064917;28;20040;-69
2023/10/05 04:31:40;;;;;;;1.95;0.40;;;;;;;14.04;80.46;101420.59;5062574;28;20064;-68
2023/10/05 04:34:11;;;;;;;1.60;0.38;;;;;;;13.89;80.93;101425.47;5060091;28;20053;-69
2023/10/05 04:36:36;;;;;;;1.58;0.30;;;;;;;13.70;81.92;101422.94;5067215;28;20423;-68
2023/10/05 04:39:04;;;;;;;1.35;0.30;;;;;;;13.62;82.07;101428.88;5066366;28;20024;-68
2023/10/05 04:41:33;;;;;;;1.40;0.20;;;;;;;13.58;82.17;101423.09;5065583;28;20033;-69
2023/10/05 04:43:59;;;;;;;2.55;0.30;;;;;;;13.55;82.46;101428.59;5063651;28;20029;-69
2023/10/05 04:46:25;;;;;;;1.00;0.30;;;;;;;13.45;82.80;101433.00;5066030;28;20072;-69
2023/10/05 04:49:02;;;;;;;1.75;0.30;;;;;;;13.40;83.32;101435.22;5066238;28;20617;-69
2023/10/05 04:51:30;;;;;;;0.75;0.30;;;;;;;13.36;83.52;101439.06;5062047;28;20041;-68
2023/10/05 04:53:59;;;;;;;3.15;0.47;;;;;;;13.29;83.70;101430.94;5060485;28;20072;-68
2023/10/05 04:57:22;;;;;;;1.30;0.30;;;;;;;13.25;84.20;101420.91;5065888;28;20456;-69
2023/10/05 05:04:28;;;;;;;2.70;0.20;;;;;;;13.15;83.95;101422.69;5066472;28;20064;-68
2023/10/05 05:07:00;;;;;;;1.92;0.25;;;;;;;13.08;84.24;101413.72;5065127;28;20111;-68
2023/10/05 05:09:35;;;;;;;0.95;0.20;;;;;;;13.06;84.27;101415.66;5065022;28;20032;-68
2023/10/05 05:12:05;;;;;;;1.35;0.22;;;;;;;13.07;84.40;101425.16;5066293;28;20153;-69
2023/10/05 05:15:17;;;;;;;1.55;0.30;;;;;;;13.04;84.64;101417.59;5069160;28;20055;-69
2023/10/05 05:17:18;;;;;;;1.30;0.20;;;;;;;13.01;85.28;101412.63;5066774;28;20032;-68
2023/10/05 05:19:44;;;;;;;2.58;0.32;;;;;;;12.93;84.94;101410.69;5072290;28;20040;-68
2023/10/05 05:22:11;;;;;;;2.15;0.38;;;;;;;12.90;84.71;101406.56;5069805;28;20504;-68
2023/10/05 05:24:37;;;;;;;2.35;0.40;;;;;;;12.95;84.45;101416.59;5068907;28;20074;-68
2023/10/05 05:27:04;;;;;;;1.50;0.20;;;;;;;13.00;84.67;101416.19;5069282;28;20040;-68
2023/10/05 05:29:33;;;;;;;1.17;0.30;;;;;;;12.99;84.82;101423.22;5065967;28;20050;-68
2023/10/05 05:32:11;;;;;;;1.92;0.57;;;;;;;13.00;85.17;101426.66;5063149;28;20024;-69
2023/10/05 05:34:37;;;;;;;2.95;0.30;;;;;;;13.00;85.57;101417.03;5059009;28;20032;-71
2023/10/05 05:37:04;;;;;;;3.00;0.47;;;;;;;13.03;85.29;101426.38;5065230;28;20494;-70
2023/10/05 05:39:37;;;;;;;1.25;0.20;;;;;;;13.05;86.00;101429.69;5062125;28;20049;-68
2023/10/05 05:42:07;;;;;;;1.33;0.30;;;;;;;13.10;85.53;101435.34;5058688;28;20040;-66
2023/10/05 05:44:34;;;;;;;4.97;0.38;;;;;;;13.14;85.41;101432.31;5063447;28;20058;-66
2023/10/05 05:47:14;;;;;;;1.55;0.30;;;;;;;13.20;85.21;101437.03;5058790;28;20041;-65
2023/10/05 05:49:46;;;;;;;1.17;0.28;;;;;;;13.30;85.55;101442.25;5060793;28;20037;-66
2023/10/05 05:52:13;;;;;;;2.30;0.30;;;;;;;13.38;85.41;101447.63;5059583;28;20480;-65
2023/10/05 05:54:39;;;;;;;2.10;0.30;;;;;;;13.46;85.98;101439.91;5059618;28;20115;-66
2023/10/05 05:57:08;;;;;;;0.98;0.25;;;;;;;13.52;85.52;101452.44;5058115;28;20518;-65
2023/10/05 05:59:38;;;;;;;1.17;0.50;;;;;;;13.60;85.29;101457.81;5061762;28;20113;-66
2023/10/05 06:02:07;;;;;;;2.33;0.40;;;;;;;13.68;85.00;101464.97;5062300;28;20075;-65
2023/10/05 06:04:33;;;;;;;2.50;0.22;;;;;;;13.77;84.52;101468.50;5064098;28;20029;-66
2023/10/05 06:06:59;;;;;;;1.25;0.40;;;;;;;13.83;84.88;101468.78;5061348;28;20079;-66
2023/10/05 06:09:27;;;;;;;2.70;0.35;;;;;;;13.89;85.18;101475.25;5063821;28;20032;-66
2023/10/05 06:11:53;;;;;;;2.35;0.40;;;;;;;13.95;85.38;101478.13;5060507;28;20028;-66
2023/10/05 06:14:19;;;;;;;1.23;0.30;;;;;;;14.03;85.11;101477.41;5055639;28;20024;-65
2023/10/05 06:16:45;;;;;;;2.42;0.63;;;;;;;14.04;84.98;101478.25;5056538;28;20048;-66
2023/10/05 06:19:11;;;;;;;3.75;0.30;;;;;;;14.05;85.17;101479.91;5054786;28;20122;-64
2023/10/05 06:21:36;;;;;;;1.40;0.20;;;;;;;14.08;85.28;101484.84;5059703;28;20024;-64
2023/10/05 06:24:02;;;;;;;1.13;0.35;;;;;;;14.16;84.61;101493.66;5058037;28;20036;-64
2023/10/05 06:26:30;;;;;;;1.60;0.40;;;;;;;14.26;84.71;101489.19;5058274;28;20048;-65
2023/10/05 06:28:56;;;;;;;0.52;0.20;;;;;;;14.37;84.05;101500.47;5052227;28;20025;-64
2023/10/05 06:31:22;;;;;;;1.45;0.52;;;;;;;14.47;83.99;101494.25;5057384;28;20028;-64
2023/10/05 06:33:48;;;;;;;3.67;0.82;;;;;;;14.62;84.02;101492.00;5058359;28;20024;-63
2023/10/05 06:36:13;;;;;;;2.33;0.50;;;;;;;14.74;84.16;101489.97;5071492;28;20043;-64
2023/10/05 06:38:39;;;;;;;1.42;0.40;;;;;;;14.91;83.85;101482.13;5071372;28;20040;-64
2023/10/05 06:41:04;;;;;;;1.63;0.20;;;;;;;15.05;83.96;101499.19;5071966;28;20024;-64
2023/10/05 06:43:35;;;;;;;1.63;0.35;;;;;;;15.21;82.06;101488.00;5071481;28;20040;-64
2023/10/05 06:46:09;;;;;;;2.33;0.30;;;;;;;15.35;82.00;101495.34;5071205;28;20604;-64
2023/10/05 06:48:36;;;;;;;1.50;0.30;;;;;;;15.44;81.42;101491.81;5070002;28;20028;-65
2023/10/05 06:51:02;;;;;;;1.95;0.50;;;;;;;15.52;81.78;101493.69;5067654;28;20025;-64
2023/10/05 06:53:28;;;;;;;2.22;0.20;;;;;;;15.63;81.77;101492.66;5069297;28;20458;-64
2023/10/05 06:55:54;;;;;;;1.67;0.40;;;;;;;15.70;81.54;101488.44;5075807;28;20036;-64
2023/10/05 06:58:19;;;;;;;1.45;0.25;;;;;;;15.79;82.77;101498.84;5069878;28;20070;-64
2023/10/05 07:00:45;;;;;;;0.93;0.30;;;;;;;15.85;82.20;101502.69;5068973;28;20042;-64
2023/10/05 07:03:11;;;;;;;1.58;0.20;;;;;;;15.97;81.73;101496.19;5070495;28;20039;-68
2023/10/05 07:05:36;;;;;;;2.08;0.20;;;;;;;16.07;81.50;101493.47;5065704;28;20040;-68
2023/10/05 07:08:03;;;;;;;0.70;0.20;;;;;;;16.18;81.15;101494.00;5068860;28;20027;-67
2023/10/05 07:10:28;;;;;;;0.75;0.20;;;;;;;16.25;80.80;101499.47;5082417;28;20025;-67
2023/10/05 07:12:54;;;;;;;2.78;0.28;;;;;;;16.26;80.83;101496.69;5070071;28;20040;-67
2023/10/05 07:15:23;;;;;;;1.50;0.20;;;;;;;16.27;80.77;101494.88;5069169;28;20025;-68
2023/10/05 07:17:49;;;;;;;0.63;0.20;;;;;;;16.25;80.24;101492.41;5065709;28;20107;-67
2023/10/05 07:20:22;;;;;;;1.13;0.20;;;;;;;16.26;80.33;101498.47;5070866;28;20028;-67
2023/10/05 07:22:48;;;;;;;1.48;0.30;;;;;;;16.29;80.46;101490.28;5064600;28;20037;-67
2023/10/05 07:25:14;;;;;;;1.95;0.20;;;;;;;16.29;80.28;101490.28;5065845;28;20106;-67
2023/10/05 07:27:41;;;;;;;1.27;0.20;;;;;;;16.33;80.43;101490.78;5064231;28;20024;-67
2023/10/05 07:30:11;;;;;;;1.50;0.22;;;;;;;16.37;80.30;101492.13;5065648;28;20501;-67
2023/10/05 07:32:37;;;;;;;1.27;0.22;;;;;;;16.42;80.12;101484.59;5062696;28;20588;-67
2023/10/05 07:35:06;;;;;;;0.85;0.40;;;;;;;16.47;79.39;101483.16;5064142;28;20029;-67
2023/10/05 07:37:33;;;;;;;0.80;0.20;;;;;;;16.53;78.99;101492.22;5064028;28;20047;-67
2023/10/05 07:39:59;;;;;;;1.77;0.30;;;;;;;16.57;78.40;101501.41;5065425;28;20115;-68
2023/10/05 07:42:26;;;;;;;0.77;0.20;;;;;;;16.60;78.75;101498.47;5062561;28;20547;-67
2023/10/05 07:44:51;;;;;;;1.75;0.38;;;;;;;16.78;78.05;101512.38;5060447;28;20087;-67
2023/10/05 07:47:17;;;;;;;1.02;0.28;;;;;;;16.98;77.74;101506.84;5070879;28;20310;-67
2023/10/05 07:49:42;;;;;;;1.25;0.30;;;;;;;17.15;77.73;101503.25;5066383;28;20111;-67
2023/10/05 07:52:11;;;;;;;1.65;0.35;;;;;;;17.24;76.89;101499.66;5065211;28;20032;-67
2023/10/05 07:54:38;;;;;;;1.15;0.20;;;;;;;17.31;76.55;101500.66;5059821;28;20536;-68
2023/10/05 07:57:07;;;;;;;3.63;0.57;;;;;;;17.35;76.38;101507.25;5066354;28;20060;-66
2023/10/05 07:59:32;;;;;;;2.70;0.30;;;;;;;17.38;75.34;101504.28;5058862;28;20032;-66
2023/10/05 08:01:58;;;;;;;1.02;0.30;;;;;;;17.40;75.54;101504.94;5057517;28;20083;-67
2023/10/05 08:04:23;;;;;;;1.33;0.30;;;;;;;17.37;76.08;101507.91;5058476;28;20033;-67
2023/10/05 08:06:50;;;;;;;1.05;0.20;;;;;;;17.36;76.57;101508.88;5067233;28;20218;-67
2023/10/05 08:09:15;;;;;;;1.15;0.22;;;;;;;17.35;76.75;101522.22;5058460;28;20477;-67
2023/10/05 08:11:43;;;;;;;2.53;0.40;;;;;;;17.29;76.76;101526.31;5056077;28;20080;-67
2023/10/05 08:14:12;;;;;;;0.85;0.20;;;;;;;17.28;76.62;101519.41;5062321;28;20031;-67
2023/10/05 08:16:38;;;;;;;1.10;0.30;;;;;;;17.32;76.42;101520.72;5058729;28;20032;-67
2023/10/05 08:19:05;;;;;;;2.25;0.38;;;;;;;17.41;76.38;101519.75;5055353;28;20029;-66
2023/10/05 08:21:34;;;;;;;0.77;0.20;;;;;;;17.46;75.46;101530.63;5055635;28;20055;-68
2023/10/05 08:24:01;;;;;;;2.60;0.30;;;;;;;17.54;74.71;101527.97;5054433;28;20032;-67
2023/10/05 08:26:28;;;;;;;1.33;0.40;;;;;;;17.63;74.22;101528.81;5064104;28;20090;-66
2023/10/05 08:28:57;;;;;;;1.05;0.13;;;;;;;17.66;73.53;101532.97;5070043;28;20055;-67
2023/10/05 08:31:24;;;;;;;2.60;0.20;;;;;;;17.73;73.23;101533.94;5069699;28;20510;-68
2023/10/05 08:33:52;;;;;;;3.50;0.47;;;;;;;17.79;73.02;101531.47;5070232;28;20036;-68
2023/10/05 08:36:18;;;;;;;2.42;0.30;;;;;;;17.85;72.85;101528.19;5070108;28;20047;-67
2023/10/05 08:38:47;;;;;;;0.98;0.10;;;;;;;17.92;72.36;101527.53;5068455;28;20036;-67
2023/10/05 08:41:31;;;;;;;1.48;0.20;;;;;;;17.95;71.92;101520.09;5069706;28;20119;-67
2023/10/05 08:44:06;;;;;;;0.75;0.17;;;;;;;18.06;71.94;101518.91;5062947;28;20087;-67
2023/10/05 08:46:43;;;;;;;1.38;0.20;;;;;;;18.10;71.72;101518.41;5063761;28;20028;-67
2023/10/05 08:49:12;;;;;;;1.83;0.30;;;;;;;18.13;71.66;101514.59;5057266;28;20035;-67
2023/10/05 08:51:39;;;;;;;0.65;0.20;;;;;;;18.12;70.91;101513.78;5064829;28;20024;-67
2023/10/05 08:54:13;;;;;;;1.38;0.20;;;;;;;18.14;69.71;101517.06;5056225;28;20108;-67
2023/10/05 08:56:45;;;;;;;0.90;0.20;;;;;;;18.18;70.20;101509.66;5057884;28;20048;-67
2023/10/05 08:59:14;;;;;;;0.85;0.25;;;;;;;18.23;68.19;101500.25;5056615;28;20031;-67
2023/10/05 09:01:45;;;;;;;0.98;0.20;;;;;;;18.36;67.46;101509.44;5055044;28;20028;-67
2023/10/05 09:06:59;;;;;;;0.38;0.10;;;;;;;18.30;67.56;101500.41;5060682;28;20048;-71
2023/10/05 09:09:52;;;;;;;1.83;0.20;;;;;;;18.33;65.05;101504.50;5056734;28;20035;-67
2023/10/05 09:12:18;;;;;;;3.08;0.15;;;;;;;18.40;66.43;101508.13;5054497;28;20504;-68
2023/10/05 09:14:46;;;;;;;0.63;0.20;;;;;;;18.46;65.81;101500.31;5062329;28;20027;-69
2023/10/05 09:17:15;;;;;;;1.02;0.20;;;;;;;18.49;66.75;101501.78;5067553;28;20112;-67
2023/10/05 09:19:43;;;;;;;2.25;0.20;;;;;;;18.47;65.79;101504.59;5052126;28;20115;-67
2023/10/05 09:24:34;;;;;;;1.25;0.30;;;;;;;18.69;65.53;101508.34;5060146;28;20044;-68
2023/10/05 09:27:12;;;;;;;3.10;0.20;;;;;;;18.72;65.48;101500.09;5069333;28;20021;-67
2023/10/05 09:29:40;;;;;;;0.98;0.20;;;;;;;18.79;65.08;101500.22;5058395;28;20530;-68
2023/10/05 09:32:09;;;;;;;0.98;0.20;;;;;;;18.84;65.65;101500.53;5051656;28;20485;-67
2023/10/05 09:34:36;;;;;;;0.75;0.10;;;;;;;18.85;65.72;101499.53;5061867;28;20116;-67
2023/10/05 09:37:05;;;;;;;1.10;0.17;;;;;;;18.88;64.12;101497.38;5069908;28;20029;-67
2023/10/05 09:39:53;;;;;;;1.83;0.38;;;;;;;19.08;60.95;101502.19;5068690;28;20037;-67
2023/10/05 09:42:26;;;;;;;0.88;0.15;;;;;;;19.30;62.73;101493.44;5070958;28;20044;-68
2023/10/05 09:44:57;;;;;;;2.08;0.13;;;;;;;19.27;63.33;101492.97;5061680;28;20040;-67
2023/10/05 09:47:33;;;;;;;1.10;0.13;;;;;;;19.28;61.86;101494.63;5068144;28;20028;-67
2023/10/05 09:50:09;;;;;;;1.42;0.20;;;;;;;19.30;63.44;101490.81;5063363;28;20491;-68
2023/10/05 09:52:43;;;;;;;0.60;0.20;;;;;;;19.31;63.47;101479.25;5068882;28;20542;-68
2023/10/05 09:55:12;;;;;;;1.45;0.20;;;;;;;19.39;63.01;101481.78;5069438;28;20020;-68
2023/10/05 09:57:46;;;;;;;1.05;0.30;;;;;;;19.43;64.92;101490.19;5067972;28;20040;-68
2023/10/05 10:01:12;;;;;;;0.68;0.28;;;;;;;19.35;65.71;101493.75;5069871;28;20544;-67
2023/10/05 10:03:01;;;;;;;0.80;0.20;;;;;;;19.35;65.89;101499.03;5067812;28;20119;-67
2023/10/05 10:05:33;;;;;;;1.15;0.30;;;;;;;19.37;65.01;101504.97;5065050;28;20480;-68
2023/10/05 10:08:21;;;;;;;0.73;0.10;;;;;;;19.56;62.50;101501.03;5064587;28;20040;-68
2023/10/05 10:11:00;;;;;;;1.13;0.20;;;;;;;19.58;63.17;101500.84;5070649;28;20040;-68
2023/10/05 10:13:28;;;;;;;4.07;0.35;;;;;;;19.49;64.05;101500.88;5069755;28;20530;-68
2023/10/05 10:15:56;;;;;;;0.70;0.20;;;;;;;19.49;63.85;101503.53;5070720;28;20040;-67
2023/10/05 10:18:34;;;;;;;0.80;0.10;;;;;;;19.52;64.04;101510.31;5069773;28;20432;-68
2023/10/05 10:21:08;;;;;;;0.50;0.20;;;;;;;19.46;64.65;101503.06;5073627;28;20444;-68
2023/10/05 10:23:36;;;;;;;2.65;0.20;;;;;;;19.43;64.97;101504.22;5069410;28;20036;-67
2023/10/05 10:26:06;;;;;;;1.58;0.40;;;;;;;19.39;63.68;101497.66;5064105;28;20082;-68
2023/10/05 10:31:18;;;;;;;1.25;0.20;;;;;;;19.68;62.87;101502.25;5071969;28;20126;-68
2023/10/05 10:33:51;;;;;;;3.20;0.22;;;;;;;19.67;62.64;101489.22;5066793;28;20100;-68
2023/10/05 10:36:22;;;;;;;1.10;0.20;;;;;;;19.67;62.19;101484.75;5069823;28;20025;-68
2023/10/05 10:38:52;;;;;;;1.33;0.15;;;;;;;19.93;62.01;101479.03;5070447;28;20032;-68
2023/10/05 10:41:22;;;;;;;1.38;0.20;;;;;;;19.94;61.65;101475.38;5069836;28;20033;-68
2023/10/05 10:43:57;;;;;;;1.88;0.40;;;;;;;20.09;61.10;101467.44;5067582;28;20039;-68
2023/10/05 10:46:30;;;;;;;;;;;;;;;20.08;57.34;101469.28;5067410;28;20035;-68
2023/10/05 10:49:00;;;;;;;0.88;0.20;;;;;;;20.04;60.48;101460.06;5066685;28;19916;-68
2023/10/05 10:51:35;;;;;;;2.15;0.40;;;;;;;20.19;59.93;101458.25;5066664;28;20056;-68
2023/10/05 10:54:14;;;;;;;1.05;0.20;;;;;;;20.11;60.55;101460.97;5066728;28;20105;-68
2023/10/05 10:56:44;;;;;;;1.75;0.20;;;;;;;20.04;61.12;101459.22;5063481;28;20037;-68
2023/10/05 10:59:26;;;;;;;0.88;0.25;;;;;;;20.17;60.52;101454.94;5062277;28;20028;-68
2023/10/05 11:01:59;;;;;;;1.85;0.20;;;;;;;20.13;61.71;101452.84;5063656;28;20032;-68
2023/10/05 11:04:36;;;;;;;0.75;0.15;;;;;;;20.08;62.28;101456.03;5067918;28;20035;-68
2023/10/05 11:07:07;;;;;;;1.33;0.20;;;;;;;20.01;62.57;101454.31;5067159;28;20024;-68
2023/10/05 11:09:48;;;;;;;0.60;0.10;;;;;;;20.14;61.85;101443.91;5066220;28;20036;-68
2023/10/05 11:12:22;;;;;;;0.88;0.20;;;;;;;20.09;62.53;101433.88;5067461;28;20361;-68
2023/10/05 11:14:48;;;;;;;1.30;0.20;;;;;;;20.03;62.95;101420.56;5068746;28;20025;-68
2023/10/05 11:17:23;;;;;;;0.82;0.20;;;;;;;20.02;62.65;101419.75;5068671;28;20025;-68
2023/10/05 11:19:49;;;;;;;1.67;0.30;;;;;;;20.07;62.88;101420.00;5070566;28;20388;-68
2023/10/05 11:22:23;;;;;;;0.68;0.20;;;;;;;20.20;62.14;101417.53;5063484;28;20040;-68
2023/10/05 11:25:16;;;;;;;3.50;0.28;;;;;;;20.28;59.08;101421.91;5063231;28;20025;-68
2023/10/05 11:27:55;;;;;;;3.92;0.30;;;;;;;20.33;59.92;101413.41;5062644;28;20567;-68
2023/10/05 11:30:22;;;;;;;2.17;0.32;;;;;;;20.28;61.19;101407.88;5069590;28;20035;-68
2023/10/05 11:32:54;;;;;;;0.70;0.30;;;;;;;20.25;61.15;101402.94;5068269;28;20036;-68
2023/10/05 11:35:28;;;;;;;0.60;0.20;;;;;;;20.32;60.61;101398.56;5064956;28;20060;-68
2023/10/05 11:38:04;;;;;;;0.43;0.10;;;;;;;20.42;59.10;101393.78;5065811;28;20028;-67
2023/10/05 11:40:41;;;;;;;1.27;0.30;;;;;;;20.61;58.17;101395.84;5065316;28;20028;-68
2023/10/05 11:43:13;;;;;;;1.65;0.20;;;;;;;20.69;58.19;101387.78;5062749;28;20047;-68
2023/10/05 11:45:53;;;;;;;0.75;0.20;;;;;;;20.59;58.99;101375.88;5061988;28;20486;-68
2023/10/05 11:48:20;;;;;;;0.60;0.30;;;;;;;20.57;59.59;101372.59;5060769;28;20393;-68
2023/10/05 11:50:52;;;;;;;1.90;0.20;;;;;;;20.58;59.66;101376.88;5058596;28;20028;-68
2023/10/05 11:53:23;;;;;;;1.55;0.22;;;;;;;20.51;60.21;101372.31;5068906;28;20060;-68
2023/10/05 11:55:51;;;;;;;1.17;0.13;;;;;;;20.47;60.26;101370.22;5066592;28;20021;-68
2023/10/05 11:58:18;;;;;;;0.60;0.20;;;;;;;20.51;59.94;101369.69;5071077;28;20056;-68
2023/10/05 12:00:46;;;;;;;1.10;0.10;;;;;;;20.52;60.72;101368.66;5068317;28;20059;-68
2023/10/05 12:03:12;;;;;;;0.65;0.20;;;;;;;20.53;59.61;101370.31;5072902;28;20036;-68
2023/10/05 12:05:38;;;;;;;1.00;0.20;;;;;;;20.63;58.18;101367.34;5068644;28;20028;-69
2023/10/05 12:08:05;;;;;;;0.75;0.20;;;;;;;20.55;58.73;101364.81;5070758;28;20535;-68
2023/10/05 12:10:34;;;;;;;1.10;0.20;;;;;;;20.71;57.88;101359.28;5067950;28;20025;-68